Sunday, February 17, 2019, 3:06 PM EST
Back to Local

KBVY, Beverly Municipal Airport

Location: Danvers, MA, United States Lat: 42.583
Local Time: 3:06 PM EST (20:06 GMT) Lon: -70.917
Time Zone: US/Eastern Elev: 108 ft

Show me the last for .
Show Decoded

2019-02-17 14:53 METAR KBVY 171953Z 14010KT 10SM CLR M01/M10 A3010 RMK AO2 SLP189 T10061100 =
2019-02-17 13:53 METAR KBVY 171853Z 00000KT 10SM CLR 01/M15 A3007 RMK AO2 PRESRR SLP180 T00061150
                 =
2019-02-17 12:53 METAR KBVY 171753Z 00000KT 10SM CLR M01/M15 A3007 RMK AO2 SLP180 T10061150 10006
                 21061 58021 =
2019-02-17 11:53 METAR KBVY 171653Z 28006KT 10SM CLR M01/M14 A3010 RMK AO2 SLP189 T10061144 =
2019-02-17 10:53 METAR KBVY 171553Z 33009KT 10SM CLR M02/M14 A3013 RMK AO2 SLP199 T10171144 =
2019-02-17 09:53 METAR KBVY 171453Z 32012KT 10SM CLR M03/M14 A3013 RMK AO2 SLP201 T10281144 53016
                 =
2019-02-17 08:53 METAR KBVY 171353Z 30011KT 10SM CLR M04/M14 A3012 RMK AO2 SLP196 T10391144 =
2019-02-17 07:53 METAR KBVY 171253Z 34008KT 10SM CLR M05/M13 A3010 RMK AO2 SLP190 T10501133 =
2019-02-17 06:53 METAR KBVY 171153Z 32009KT 10SM CLR M06/M13 A3008 RMK AO2 SLP185 T10611133 11033
                 21067 53018 =
2019-02-17 05:53 METAR KBVY 171053Z AUTO 32009KT 10SM CLR M06/M13 A3006 RMK AO2 SLP177 T10611133
                 =
2019-02-17 04:53 METAR KBVY 170953Z AUTO 33007KT 10SM CLR M06/M13 A3003 RMK AO2 SLP168 T10611128
                 =
2019-02-17 03:53 METAR KBVY 170853Z AUTO 32009KT 10SM CLR M05/M13 A3003 RMK AO2 SLP167 T10501128
                 51009 =
2019-02-17 02:53 METAR KBVY 170753Z AUTO 32008KT 10SM CLR M04/M13 A3003 RMK AO2 SLP165 T10441128
                 =
2019-02-17 01:53 METAR KBVY 170653Z AUTO 32014G20KT 10SM CLR M04/M13 A3001 RMK AO2 SLP160
                 T10441128 =
2019-02-17 00:53 METAR KBVY 170553Z AUTO 33012G16KT 10SM CLR M03/M12 A3000 RMK AO2 SLP157
                 T10331122 10017 21033 53025 =
2019-02-16 23:53 METAR KBVY 170453Z AUTO 33006KT 10SM CLR M03/M12 A2998 RMK AO2 SLP148 T10281117
                 400781028 =
2019-02-16 22:53 METAR KBVY 170353Z AUTO 33011KT 10SM CLR M02/M11 A2995 RMK AO2 SLP139 T10171111
                 =
2019-02-16 21:53 METAR KBVY 170253Z AUTO 31015G21KT 10SM CLR 00/M09 A2993 RMK AO2 SLP132
                 T00001094 53019 =
2019-02-16 20:53 METAR KBVY 170153Z AUTO 30007KT 10SM CLR 01/M09 A2991 RMK AO2 SLP124 T00061089 =
2019-02-16 19:53 METAR KBVY 170053Z 31006KT 10SM CLR 01/M08 A2989 RMK AO2 SLP117 T00111083 =
2019-02-16 18:53 METAR KBVY 162353Z 30006KT 10SM CLR 02/M08 A2987 RMK AO2 SLP113 T00171078 10056
                 20011 53033 =
2019-02-16 17:53 METAR KBVY 162253Z 32008KT 10SM CLR 02/M07 A2984 RMK AO2 SLP100 T00171072 =
2019-02-16 16:53 METAR KBVY 162153Z 32011KT 10SM CLR 03/M08 A2980 RMK AO2 SLP089 T00331078 =
2019-02-16 15:53 METAR KBVY 162053Z 31010G16KT 10SM CLR 04/M08 A2978 RMK AO2 SLP079 T00441078
                 53011 =

Support USWX by starting your Amazon purchase here.